createdAt,value
2023-01-30T10:31:18.907Z,25.00
2023-01-30T10:32:18.731Z,25.00
2023-01-30T10:33:18.702Z,25.00
2023-01-30T10:34:18.678Z,25.00
2023-01-30T10:35:18.670Z,25.00
2023-01-30T10:36:18.709Z,0.00
2023-01-30T10:37:18.658Z,0.00
2023-01-30T10:38:18.667Z,0.00
2023-01-30T10:39:18.680Z,0.00
2023-01-30T10:40:19.002Z,0.00
2023-01-30T10:41:18.666Z,0.00
2023-01-30T10:42:18.635Z,0.00
2023-01-30T10:43:18.635Z,0.00
2023-01-30T10:44:18.618Z,0.00
2023-01-30T10:45:18.573Z,0.00
2023-01-30T10:46:18.567Z,0.00
2023-01-30T10:47:18.576Z,0.00
2023-01-30T10:48:18.589Z,0.00
2023-01-30T10:49:18.586Z,0.00
2023-01-30T10:50:18.998Z,0.00
2023-01-30T10:51:18.559Z,0.00
2023-01-30T10:52:18.572Z,0.00
2023-01-30T10:53:18.569Z,0.00
2023-01-30T10:54:19.845Z,0.00
2023-01-30T10:55:28.142Z,22.91
2023-01-30T10:56:19.501Z,18.41
2023-01-30T10:57:22.293Z,14.33
2023-01-30T10:58:18.501Z,7.39
2023-01-30T10:59:18.503Z,2.91
2023-01-30T11:00:18.723Z,0.00
2023-01-30T11:01:18.457Z,0.00
2023-01-30T11:02:18.463Z,0.00
2023-01-30T11:03:20.310Z,8.95
2023-01-30T11:04:18.446Z,25.00
2023-01-30T11:05:18.773Z,25.85
2023-01-30T11:06:18.445Z,24.84
2023-01-30T11:07:18.444Z,26.49
2023-01-30T11:08:18.409Z,27.55
2023-01-30T11:09:18.413Z,25.97
2023-01-30T11:10:18.417Z,34.03
2023-01-30T11:11:18.453Z,35.30
2023-01-30T11:12:18.400Z,30.91
2023-01-30T11:13:18.370Z,26.68
2023-01-30T11:14:18.364Z,26.49
2023-01-30T11:15:18.620Z,30.22
2023-01-30T11:16:18.442Z,27.47
2023-01-30T11:17:18.333Z,33.00
2023-01-30T11:19:17.767Z,38.39
2023-01-30T11:19:21.553Z,37.05
2023-01-30T11:20:18.624Z,38.46
2023-01-30T11:21:18.342Z,30.54
2023-01-30T11:22:18.304Z,29.38
2023-01-30T11:23:18.298Z,28.91
2023-01-30T11:24:18.316Z,23.38
2023-01-30T11:25:18.599Z,26.15
2023-01-30T11:26:18.293Z,29.83
2023-01-30T11:27:18.349Z,31.68
2023-01-30T11:28:18.290Z,29.53
2023-01-30T11:29:18.286Z,28.66
2023-01-30T11:30:18.497Z,28.39
2023-01-30T11:31:19.759Z,30.20
2023-01-30T11:32:19.315Z,30.32
2023-01-30T11:33:18.227Z,28.16
2023-01-30T11:34:18.246Z,27.98
2023-01-30T11:35:18.294Z,24.70
2023-01-30T11:36:18.189Z,26.54
2023-01-30T11:37:18.169Z,31.27
2023-01-30T11:38:18.190Z,30.56
2023-01-30T11:39:18.167Z,28.58
2023-01-30T11:40:18.768Z,28.98
2023-01-30T11:41:18.209Z,27.76
2023-01-30T11:42:18.143Z,28.26
2023-01-30T11:43:18.133Z,29.70
2023-01-30T11:44:18.141Z,27.17
2023-01-30T11:45:18.621Z,27.93
2023-01-30T11:46:18.135Z,28.18
2023-01-30T11:47:18.125Z,30.64
2023-01-30T11:48:33.281Z,31.91
2023-01-30T11:49:48.247Z,32.09
2023-01-30T11:50:20.184Z,32.53
2023-01-30T11:51:18.088Z,32.57
2023-01-30T11:52:18.068Z,33.34
2023-01-30T11:53:18.090Z,23.11
2023-01-30T11:54:18.116Z,28.25
2023-01-30T11:55:19.089Z,36.80
2023-01-30T11:56:18.202Z,25.00
2023-01-30T11:57:19.002Z,25.89
2023-01-30T12:01:25.625Z,25.00
2023-01-30T12:02:25.735Z,25.00
2023-01-30T12:03:26.166Z,25.00
2023-01-30T12:04:25.592Z,25.00
2023-01-30T12:05:25.547Z,25.00
2023-01-30T12:06:33.299Z,25.00
2023-01-30T12:07:33.277Z,25.00
2023-01-30T12:08:40.668Z,25.00
2023-01-30T12:09:26.534Z,25.00
2023-01-30T12:10:25.545Z,25.00
2023-01-30T12:11:25.556Z,25.00
2023-01-30T12:12:26.151Z,25.00
2023-01-30T12:13:25.559Z,25.00
2023-01-30T12:14:25.512Z,30.84
2023-01-30T12:15:25.521Z,25.61
2023-01-30T12:16:25.512Z,22.40
2023-01-30T12:17:25.502Z,30.68
2023-01-30T12:18:25.492Z,30.39
2023-01-30T12:19:25.461Z,28.11
2023-01-30T12:20:25.450Z,32.35
2023-01-30T12:21:25.449Z,34.44
2023-01-30T12:22:25.432Z,32.47
2023-01-30T12:23:25.469Z,28.38
2023-01-30T12:24:25.443Z,35.86
2023-01-30T12:25:25.492Z,36.51
2023-01-30T12:26:25.408Z,33.60
2023-01-30T12:27:25.450Z,39.34
2023-01-30T12:28:25.366Z,33.98
2023-01-30T12:29:25.368Z,41.45
2023-01-30T12:30:25.393Z,47.74
2023-01-30T12:31:25.358Z,46.91
2023-01-30T12:32:25.329Z,52.85
2023-01-30T12:33:26.248Z,56.72
2023-01-30T12:34:27.219Z,72.65
2023-01-30T12:35:25.337Z,72.60
2023-01-30T12:36:25.418Z,69.38
2023-01-30T12:37:25.313Z,79.25
2023-01-30T12:38:25.328Z,78.67
2023-01-30T12:39:25.287Z,81.97
2023-01-30T12:40:26.298Z,82.04
2023-01-30T12:41:25.320Z,82.12
2023-01-30T12:42:25.899Z,77.74
2023-01-30T12:43:25.269Z,82.13
2023-01-30T12:44:25.270Z,83.75
2023-01-30T12:45:25.372Z,89.24
2023-01-30T12:46:25.297Z,87.02
2023-01-30T12:47:25.280Z,91.79
2023-01-30T12:48:25.226Z,88.14
2023-01-30T12:49:25.234Z,90.36
2023-01-30T12:50:25.247Z,92.88
2023-01-30T12:51:25.176Z,91.69
2023-01-30T12:52:25.175Z,92.07
2023-01-30T12:53:25.220Z,97.14
2023-01-30T12:54:25.237Z,96.28
2023-01-30T12:55:25.156Z,100.74
2023-01-30T12:56:25.148Z,100.48
2023-01-30T12:57:25.132Z,100.45
2023-01-30T12:58:25.109Z,103.97
2023-01-30T12:59:25.133Z,103.35
2023-01-30T13:00:25.207Z,104.29
2023-01-30T13:01:25.248Z,106.82
2023-01-30T13:02:26.496Z,99.99
2023-01-30T13:03:25.094Z,86.77
2023-01-30T13:04:25.102Z,66.06
2023-01-30T13:05:25.094Z,68.96
2023-01-30T13:06:25.074Z,66.41
2023-01-30T13:07:25.102Z,63.04
2023-01-30T13:08:25.073Z,61.82
2023-01-30T13:09:25.036Z,56.55
2023-01-30T13:10:25.057Z,64.89
2023-01-30T13:11:25.053Z,63.28
2023-01-30T13:12:25.045Z,67.30
2023-01-30T13:13:25.059Z,69.02
2023-01-30T13:14:25.046Z,75.50
2023-01-30T13:15:24.995Z,75.17
2023-01-30T13:16:25.013Z,74.47
2023-01-30T13:17:25.010Z,72.47
2023-01-30T13:18:24.964Z,73.23
2023-01-30T13:19:25.480Z,66.17
2023-01-30T13:20:24.992Z,63.51
2023-01-30T13:21:24.977Z,72.37
2023-01-30T13:22:25.678Z,65.06
2023-01-30T13:23:24.941Z,68.39
2023-01-30T13:24:24.958Z,66.64
2023-01-30T13:25:24.907Z,66.74
2023-01-30T13:26:25.027Z,68.35
2023-01-30T13:27:24.940Z,77.31
2023-01-30T13:28:26.066Z,69.63
2023-01-30T13:29:24.902Z,72.25
2023-01-30T13:30:24.913Z,69.06
2023-01-30T13:31:25.062Z,69.81
2023-01-30T13:32:24.974Z,32.72
2023-01-30T13:33:24.864Z,70.37
2023-01-30T13:34:24.910Z,78.91
2023-01-30T13:35:24.839Z,79.85
2023-01-30T13:36:24.858Z,80.19
2023-01-30T13:37:24.904Z,81.19
2023-01-30T13:38:24.846Z,81.51
2023-01-30T13:39:24.846Z,86.51
2023-01-30T13:40:25.024Z,93.04
2023-01-30T13:41:24.814Z,93.02
2023-01-30T13:42:24.817Z,89.14
2023-01-30T13:43:24.792Z,82.23
2023-01-30T13:44:24.794Z,83.23
2023-01-30T13:45:24.906Z,85.10
2023-01-30T13:46:24.804Z,92.33
2023-01-30T13:47:24.881Z,94.60
2023-01-30T13:48:24.828Z,93.72
2023-01-30T13:49:24.726Z,93.82
2023-01-30T13:50:24.705Z,97.20
2023-01-30T13:51:24.735Z,99.25
2023-01-30T13:52:24.740Z,99.90
2023-01-30T13:53:24.752Z,108.22
2023-01-30T13:54:24.699Z,106.12
2023-01-30T13:55:24.748Z,104.99
2023-01-30T13:56:40.668Z,107.38
2023-01-30T13:57:25.752Z,107.83
2023-01-30T13:58:25.275Z,108.79
2023-01-30T13:59:24.624Z,110.14
2023-01-30T14:00:24.674Z,114.29
2023-01-30T14:01:24.710Z,116.85
2023-01-30T14:02:24.707Z,116.60
2023-01-30T14:03:24.616Z,120.56
2023-01-30T14:04:24.629Z,121.71
2023-01-30T14:05:31.803Z,125.27
2023-01-30T14:06:25.594Z,125.52
2023-01-30T14:07:24.586Z,125.42
2023-01-30T14:08:24.598Z,126.95
2023-01-30T14:09:24.571Z,126.02
2023-01-30T14:10:24.662Z,128.50
2023-01-30T14:11:24.540Z,132.23
2023-01-30T14:12:24.555Z,134.95
2023-01-30T14:13:24.533Z,135.13
2023-01-30T14:14:24.538Z,135.15
2023-01-30T14:15:25.197Z,135.41
2023-01-30T14:16:24.567Z,139.09
2023-01-30T14:17:24.512Z,139.12
2023-01-30T14:18:24.512Z,146.03
2023-01-30T14:19:25.686Z,145.73
2023-01-30T14:20:24.516Z,146.41
2023-01-30T14:21:24.534Z,145.28
2023-01-30T14:22:24.482Z,147.20
2023-01-30T14:23:24.452Z,152.35
2023-01-30T14:24:24.420Z,153.72
2023-01-30T14:25:24.452Z,152.79
2023-01-30T14:26:24.464Z,151.39
2023-01-30T14:27:24.465Z,156.00
